Kenora, Canada
Current Conditions -  °F | °C
As of 11:06 PM on Wednesday 22 Oct 2014 (Local Time) from CYQK Reporting Station
Light Rain Light Rain  
Wind Chill: 55°   Ceiling: 2200
Heat Index: 55°   Visibility: 12mi
Dew Point: 45°   Wind: 16mph
Humidity: 67%   Direction: 190°S
Pressure: 29.84"   Gusts: 28mph
Location:  49.77°N, 94.46°W
Report Text: CYQK 230406Z 19014G24KT 12SM -RA OVC022 13/07 A2984 RMK SC8 SLP112 DENSITY ALT 1400FT
Loading
Personal Weather Stations






























Interactive Weather Map
Tropical Storm Tracking
New forecast layout! Learn more

10-Day Weather Forecast

Advertisements
Track Severe Weather on mobile